Time;durP1;ratioP1;P1;durP2;ratioP2;P2;SDS_P1;SDS_P2;PMS_P1;PMS_P2;Temp;Humidity;BMP_temperature;BMP_pressure;BME280_temperature;BME280_humidity;BME280_pressure;Samples;Min_cycle;Max_cycle;Signal;HPM_P1;HPM_P2
2023/12/26 00:00:39;;;;;;;4.03;1.13;;;;;;;9.11;100.00;99699.88;6055725;28;20057;-73
2023/12/26 00:03:34;;;;;;;2.38;0.90;;;;;;;9.07;100.00;99682.69;6052795;28;20589;-72
2023/12/26 00:06:29;;;;;;;1.80;0.80;;;;;;;9.08;100.00;99672.94;6052528;28;20029;-72
2023/12/26 00:09:25;;;;;;;1.40;0.80;;;;;;;9.15;100.00;99674.78;6053188;28;20037;-72
2023/12/26 00:12:20;;;;;;;1.10;0.60;;;;;;;9.20;100.00;99667.16;6051290;28;20025;-74
2023/12/26 00:15:17;;;;;;;0.88;0.50;;;;;;;9.22;100.00;99648.47;6051575;28;20272;-73
2023/12/26 00:18:12;;;;;;;0.77;0.55;;;;;;;9.32;100.00;99652.63;6050891;28;20026;-73
2023/12/26 00:21:08;;;;;;;0.80;0.40;;;;;;;9.36;100.00;99642.53;6049494;28;20069;-72
2023/12/26 00:24:04;;;;;;;0.60;0.40;;;;;;;9.48;100.00;99646.53;6055553;28;20177;-73
2023/12/26 00:26:59;;;;;;;1.58;0.30;;;;;;;9.53;100.00;99637.09;6049220;28;20501;-73
2023/12/26 00:29:55;;;;;;;0.17;0.17;;;;;;;9.63;100.00;99644.88;6045660;28;20064;-72
2023/12/26 00:32:50;;;;;;;0.30;0.20;;;;;;;9.79;100.00;99646.66;6051062;28;20101;-73
2023/12/26 00:35:45;;;;;;;0.20;0.10;;;;;;;9.76;100.00;99633.75;6048999;28;20130;-73
2023/12/26 00:38:41;;;;;;;1.48;0.20;;;;;;;9.67;100.00;99614.44;6053326;28;20034;-72
2023/12/26 00:41:36;;;;;;;0.00;0.00;;;;;;;9.86;100.00;99626.47;6047863;28;20029;-72
2023/12/26 00:44:31;;;;;;;0.10;0.10;;;;;;;9.89;100.00;99616.34;6051812;28;20025;-73
2023/12/26 00:47:27;;;;;;;0.10;0.10;;;;;;;9.83;100.00;99610.94;6051264;28;20767;-73
2023/12/26 00:50:22;;;;;;;0.70;0.30;;;;;;;9.89;100.00;99618.22;6049711;28;20284;-73
2023/12/26 00:53:18;;;;;;;1.77;0.20;;;;;;;9.84;100.00;99605.44;6053032;28;20265;-73
2023/12/26 00:56:13;;;;;;;0.70;0.30;;;;;;;9.90;100.00;99615.38;6049502;28;20036;-74
2023/12/26 00:59:08;;;;;;;0.40;0.20;;;;;;;9.94;100.00;99607.94;6048217;28;20261;-73
2023/12/26 01:02:04;;;;;;;0.50;0.20;;;;;;;9.93;100.00;99612.41;6049365;28;20045;-74
2023/12/26 01:04:59;;;;;;;0.10;0.10;;;;;;;9.92;100.00;99600.13;6052133;28;20021;-72
2023/12/26 01:07:55;;;;;;;0.60;0.10;;;;;;;9.95;100.00;99604.28;6044669;28;20389;-72
2023/12/26 01:10:51;;;;;;;1.33;0.20;;;;;;;9.94;100.00;99607.94;6051570;28;20037;-73
2023/12/26 01:13:46;;;;;;;0.35;0.10;;;;;;;9.94;100.00;99606.13;6047405;28;20034;-73
2023/12/26 01:16:45;;;;;;;0.20;0.17;;;;;;;9.96;100.00;99613.88;6050048;28;20058;-74
2023/12/26 01:19:40;;;;;;;0.00;0.00;;;;;;;9.93;100.00;99609.75;6048478;28;20272;-72
2023/12/26 01:22:35;;;;;;;0.43;0.10;;;;;;;10.01;100.00;99612.38;6049016;28;20030;-72
2023/12/26 01:25:31;;;;;;;0.40;0.10;;;;;;;10.00;100.00;99608.06;6050367;28;20366;-73
2023/12/26 01:28:27;;;;;;;0.75;0.20;;;;;;;10.03;100.00;99617.50;6049716;28;20265;-73
2023/12/26 01:31:22;;;;;;;0.10;0.10;;;;;;;10.03;100.00;99613.03;6048983;28;20022;-74
2023/12/26 01:34:18;;;;;;;0.27;0.10;;;;;;;10.00;100.00;99605.41;6052221;28;20030;-74
2023/12/26 01:37:14;;;;;;;0.10;0.10;;;;;;;10.03;100.00;99598.94;6055047;28;20033;-72
2023/12/26 01:40:11;;;;;;;0.20;0.20;;;;;;;9.96;100.00;99584.75;6048534;28;20069;-72
2023/12/26 01:43:06;;;;;;;0.55;0.30;;;;;;;10.08;100.00;99600.09;6056183;28;20038;-74
2023/12/26 01:46:03;;;;;;;0.52;0.10;;;;;;;10.10;100.00;99613.19;6055886;28;20493;-73
2023/12/26 01:48:59;;;;;;;0.15;0.10;;;;;;;10.08;100.00;99605.38;6047362;28;20478;-73
2023/12/26 01:51:54;;;;;;;0.20;0.10;;;;;;;10.13;100.00;99631.41;6057270;28;20129;-73
2023/12/26 01:54:49;;;;;;;0.30;0.17;;;;;;;10.13;100.00;99644.66;6048589;28;20037;-73
2023/12/26 01:57:45;;;;;;;0.20;0.17;;;;;;;9.95;100.00;99644.81;6052346;28;20057;-72
2023/12/26 02:00:40;;;;;;;1.45;0.17;;;;;;;9.63;100.00;99657.25;6048470;28;20277;-72
2023/12/26 02:03:36;;;;;;;2.87;0.40;;;;;;;9.30;100.00;99654.59;6048644;28;20033;-73
2023/12/26 02:06:33;;;;;;;1.08;0.22;;;;;;;9.07;100.00;99661.53;6055294;28;20041;-72
2023/12/26 02:09:30;;;;;;;2.38;0.43;;;;;;;8.93;100.00;99655.06;6055310;28;20038;-72
2023/12/26 02:12:25;;;;;;;1.00;0.10;;;;;;;8.85;100.00;99664.78;6052130;28;20041;-72
2023/12/26 02:15:20;;;;;;;0.00;0.00;;;;;;;8.80;100.00;99662.63;6050961;28;20801;-73
2023/12/26 02:18:16;;;;;;;0.22;0.08;;;;;;;8.78;100.00;99661.94;6032012;28;20030;-73
2023/12/26 02:21:12;;;;;;;0.30;0.20;;;;;;;8.81;100.00;99656.31;6043381;28;20038;-72
2023/12/26 02:24:07;;;;;;;0.87;0.10;;;;;;;8.79;100.00;99676.81;6049229;28;20077;-72
2023/12/26 02:27:03;;;;;;;6.45;0.40;;;;;;;8.76;100.00;99658.63;6054327;28;20269;-73
2023/12/26 02:30:00;;;;;;;0.20;0.10;;;;;;;8.79;100.00;99662.78;6052818;28;20042;-73
2023/12/26 02:32:56;;;;;;;0.28;0.03;;;;;;;8.75;100.00;99675.47;6035140;28;20065;-72
2023/12/26 02:35:51;;;;;;;4.35;0.20;;;;;;;8.77;100.00;99670.03;6055299;28;20088;-73
2023/12/26 02:38:47;;;;;;;0.20;0.03;;;;;;;8.72;100.00;99670.53;6039816;28;20456;-73
2023/12/26 02:41:42;;;;;;;0.87;0.20;;;;;;;8.71;100.00;99658.28;6057947;28;20030;-72
2023/12/26 02:44:38;;;;;;;0.52;0.20;;;;;;;8.64;100.00;99657.25;6054923;28;20803;-72
2023/12/26 02:47:33;;;;;;;1.77;0.10;;;;;;;8.62;100.00;99663.69;6055293;28;20022;-72
2023/12/26 02:50:31;;;;;;;1.63;0.30;;;;;;;8.61;100.00;99635.63;6057937;28;20072;-71
2023/12/26 02:53:26;;;;;;;0.22;0.10;;;;;;;8.65;100.00;99663.38;6058193;28;20034;-72
2023/12/26 02:56:21;;;;;;;0.30;0.20;;;;;;;8.60;100.00;99669.16;6061953;28;20444;-72
2023/12/26 02:59:17;;;;;;;0.73;0.20;;;;;;;8.61;100.00;99662.88;6055059;28;20025;-73
2023/12/26 03:02:12;;;;;;;0.13;0.10;;;;;;;8.67;100.00;99656.13;6053722;28;20047;-74
2023/12/26 03:05:07;;;;;;;0.00;0.00;;;;;;;8.64;100.00;99664.38;6051587;28;20113;-72
2023/12/26 03:08:03;;;;;;;0.43;0.10;;;;;;;8.66;100.00;99667.69;6060812;28;20038;-73
2023/12/26 03:10:58;;;;;;;0.52;0.03;;;;;;;8.65;100.00;99644.88;6053414;28;20343;-73
2023/12/26 03:13:54;;;;;;;0.50;0.17;;;;;;;8.67;100.00;99642.91;6050838;28;20034;-72
2023/12/26 03:16:49;;;;;;;0.20;0.10;;;;;;;8.74;100.00;99667.72;6052492;28;20053;-72
2023/12/26 03:19:44;;;;;;;1.20;0.10;;;;;;;8.70;100.00;99658.44;6052128;28;20488;-71
2023/12/26 03:22:40;;;;;;;0.10;0.10;;;;;;;8.76;100.00;99663.09;6051710;28;20309;-72
2023/12/26 03:25:35;;;;;;;0.08;0.00;;;;;;;8.69;100.00;99668.19;6051302;28;20049;-73
2023/12/26 03:28:31;;;;;;;0.98;0.10;;;;;;;8.70;100.00;99655.78;6051665;28;20398;-73
2023/12/26 03:31:26;;;;;;;1.53;0.10;;;;;;;8.76;100.00;99652.50;6050809;28;20109;-73
2023/12/26 03:34:21;;;;;;;0.93;0.30;;;;;;;8.85;100.00;99641.81;6050957;28;20024;-73
2023/12/26 03:37:17;;;;;;;0.50;0.20;;;;;;;8.99;100.00;99643.81;6055022;28;20037;-72
2023/12/26 03:40:13;;;;;;;0.45;0.10;;;;;;;9.20;100.00;99648.66;6051789;28;20133;-73
2023/12/26 03:43:09;;;;;;;0.32;0.20;;;;;;;9.28;100.00;99653.94;6050776;28;20120;-74
2023/12/26 03:46:04;;;;;;;1.43;0.40;;;;;;;9.28;100.00;99647.84;6052009;28;20026;-73
2023/12/26 03:49:00;;;;;;;0.20;0.20;;;;;;;9.31;100.00;99643.06;6050165;28;20052;-73
2023/12/26 03:51:55;;;;;;;1.52;0.30;;;;;;;9.37;100.00;99658.28;6057215;28;20041;-73
2023/12/26 03:54:52;;;;;;;0.30;0.30;;;;;;;9.40;100.00;99657.13;6050501;28;20512;-73
2023/12/26 03:57:48;;;;;;;0.20;0.20;;;;;;;9.35;100.00;99657.59;6055562;28;20664;-74
2023/12/26 04:00:44;;;;;;;0.40;0.35;;;;;;;9.37;100.00;99663.56;6052939;28;20104;-73
2023/12/26 04:03:39;;;;;;;0.20;0.20;;;;;;;9.36;100.00;99653.13;6050691;28;20246;-74
2023/12/26 04:06:34;;;;;;;0.30;0.30;;;;;;;9.37;100.00;99663.56;6052212;28;20487;-73
2023/12/26 04:09:30;;;;;;;0.33;0.33;;;;;;;9.40;100.00;99655.28;6050880;28;20324;-74
2023/12/26 04:12:25;;;;;;;1.23;0.30;;;;;;;9.39;100.00;99658.94;6051457;28;20323;-73
2023/12/26 04:15:20;;;;;;;0.40;0.20;;;;;;;9.38;100.00;99654.63;6050731;28;20042;-73
2023/12/26 04:18:16;;;;;;;0.40;0.30;;;;;;;9.42;100.00;99655.97;6054848;28;20041;-73
2023/12/26 04:21:11;;;;;;;0.57;0.32;;;;;;;9.42;100.00;99645.38;6062461;28;20033;-74
2023/12/26 04:24:06;;;;;;;1.07;0.30;;;;;;;9.40;100.00;99655.28;6047954;28;20108;-73
2023/12/26 04:27:02;;;;;;;0.30;0.20;;;;;;;9.39;100.00;99682.75;6056227;28;20176;-74
2023/12/26 04:29:57;;;;;;;0.32;0.22;;;;;;;9.42;100.00;99708.88;6050531;28;20288;-74
2023/12/26 04:32:53;;;;;;;0.30;0.27;;;;;;;9.38;100.00;99720.75;6050980;28;20366;-72
2023/12/26 04:35:48;;;;;;;0.17;0.10;;;;;;;9.33;100.00;99730.19;6049670;28;20421;-73
2023/12/26 04:38:43;;;;;;;0.80;0.33;;;;;;;9.13;100.00;99749.97;6051364;28;20034;-73
2023/12/26 04:41:38;;;;;;;0.37;0.20;;;;;;;8.94;100.00;99740.50;6049657;28;20034;-71
2023/12/26 04:44:34;;;;;;;0.87;0.20;;;;;;;8.81;100.00;99745.38;6049364;28;20533;-72
2023/12/26 04:47:29;;;;;;;0.67;0.20;;;;;;;8.70;100.00;99753.56;6054314;28;20033;-72
2023/12/26 04:50:25;;;;;;;0.00;0.00;;;;;;;8.54;100.00;99748.19;6050677;28;20030;-73
2023/12/26 04:53:20;;;;;;;0.95;0.32;;;;;;;8.54;100.00;99771.97;6053367;28;20261;-73
2023/12/26 04:56:19;;;;;;;2.63;0.30;;;;;;;8.41;100.00;99759.19;6055586;28;20034;-73
2023/12/26 04:59:14;;;;;;;0.40;0.10;;;;;;;8.35;100.00;99763.28;6051619;28;20469;-73
2023/12/26 05:02:10;;;;;;;0.90;0.20;;;;;;;8.29;100.00;99768.34;6053967;28;20033;-73
2023/12/26 05:05:07;;;;;;;1.50;0.30;;;;;;;8.22;100.00;99772.56;6049201;28;20033;-73
2023/12/26 05:08:02;;;;;;;1.13;0.22;;;;;;;8.23;100.00;99779.53;6049760;28;20049;-72
2023/12/26 05:10:58;;;;;;;0.77;0.20;;;;;;;8.18;100.00;99769.41;6050143;28;20034;-73
2023/12/26 05:13:53;;;;;;;1.70;0.43;;;;;;;8.23;100.00;99798.84;6048246;28;20122;-73
2023/12/26 05:16:50;;;;;;;0.77;0.20;;;;;;;8.15;100.00;99796.13;6048112;28;20034;-73
2023/12/26 05:19:46;;;;;;;4.60;0.30;;;;;;;8.08;100.00;99797.72;6049474;28;20102;-74
2023/12/26 05:22:41;;;;;;;2.53;0.50;;;;;;;8.06;100.00;99804.97;6054440;28;20042;-73
2023/12/26 05:25:36;;;;;;;0.93;0.40;;;;;;;8.06;100.00;99823.44;6051807;28;20252;-72
2023/12/26 05:28:32;;;;;;;1.87;0.50;;;;;;;7.99;100.00;99805.75;6049397;28;20022;-73
2023/12/26 05:31:27;;;;;;;2.58;0.65;;;;;;;7.99;100.00;99805.75;6048274;28;20038;-73
2023/12/26 05:34:23;;;;;;;3.55;0.60;;;;;;;7.97;100.00;99808.50;6048682;28;20448;-73
2023/12/26 05:37:18;;;;;;;0.87;0.33;;;;;;;8.01;100.00;99809.88;6048848;28;20038;-73
2023/12/26 05:40:13;;;;;;;4.27;0.63;;;;;;;7.96;100.00;99809.50;6054417;28;20042;-74
2023/12/26 05:43:09;;;;;;;6.83;0.67;;;;;;;7.94;100.00;99805.34;6049749;28;20041;-73
2023/12/26 05:46:04;;;;;;;2.17;0.90;;;;;;;7.95;100.00;99820.22;6048800;28;20037;-74
2023/12/26 05:48:59;;;;;;;2.93;0.73;;;;;;;7.92;100.00;99820.50;6051086;28;20284;-73
2023/12/26 05:51:55;;;;;;;2.87;0.90;;;;;;;7.95;100.00;99830.75;6057512;28;20022;-74
2023/12/26 05:54:50;;;;;;;3.00;0.90;;;;;;;7.99;100.00;99853.25;6055276;28;20273;-74
2023/12/26 05:57:46;;;;;;;3.03;0.80;;;;;;;7.98;100.00;99841.03;6051182;28;20041;-73
2023/12/26 06:00:41;;;;;;;3.50;0.73;;;;;;;7.95;100.00;99844.81;6050906;28;20112;-73
2023/12/26 06:03:37;;;;;;;2.77;0.90;;;;;;;8.03;100.00;99851.97;6053696;28;20486;-73
2023/12/26 06:06:33;;;;;;;3.30;0.70;;;;;;;8.07;100.00;99866.53;6050097;28;20377;-73
2023/12/26 06:09:28;;;;;;;2.25;0.70;;;;;;;8.01;100.00;99865.31;6058483;28;20129;-74
2023/12/26 06:12:23;;;;;;;3.58;0.60;;;;;;;8.01;100.00;99875.06;6056930;28;20443;-73
2023/12/26 06:15:19;;;;;;;6.80;0.83;;;;;;;7.96;100.00;99878.16;6055403;28;20025;-73
2023/12/26 06:18:14;;;;;;;4.40;0.80;;;;;;;7.86;100.00;99885.28;6053298;28;20022;-73
2023/12/26 06:21:10;;;;;;;1.37;0.77;;;;;;;7.88;100.00;99891.22;6052825;28;20042;-73
2023/12/26 06:24:05;;;;;;;4.07;1.53;;;;;;;7.90;100.00;99902.50;6053046;28;20533;-73
2023/12/26 06:27:00;;;;;;;3.88;1.00;;;;;;;8.00;100.00;99920.91;6053404;28;20273;-73
2023/12/26 06:29:56;;;;;;;4.17;0.90;;;;;;;8.01;100.00;99915.47;6052754;28;20469;-73
2023/12/26 06:32:51;;;;;;;2.93;1.00;;;;;;;8.02;100.00;99917.13;6055124;28;21900;-73
2023/12/26 06:35:46;;;;;;;2.83;0.90;;;;;;;8.09;100.00;99923.50;6055018;28;20437;-74
2023/12/26 06:38:42;;;;;;;2.03;0.95;;;;;;;8.02;100.00;99911.84;6049900;28;20428;-73
2023/12/26 06:41:39;;;;;;;2.17;0.70;;;;;;;8.02;100.00;99917.13;6052736;28;20041;-74
2023/12/26 06:44:35;;;;;;;1.15;0.70;;;;;;;8.05;100.00;99916.81;6058881;28;20470;-74
2023/12/26 06:47:30;;;;;;;4.47;0.87;;;;;;;8.09;100.00;99918.22;6059353;28;20060;-73
2023/12/26 06:50:25;;;;;;;12.10;1.57;;;;;;;8.21;100.00;99930.19;6052476;28;20138;-73
2023/12/26 06:53:21;;;;;;;4.00;1.00;;;;;;;8.22;100.00;99938.94;6054367;28;20026;-73
2023/12/26 06:56:16;;;;;;;3.93;0.87;;;;;;;8.17;100.00;99936.78;6051159;28;20092;-73
2023/12/26 06:59:11;;;;;;;3.07;0.67;;;;;;;8.11;100.00;99961.13;6062668;28;20084;-73
2023/12/26 07:02:07;;;;;;;1.77;0.70;;;;;;;8.03;100.00;99958.41;6054233;28;20088;-73
2023/12/26 07:05:02;;;;;;;1.83;0.50;;;;;;;8.02;100.00;99964.66;6055018;28;20351;-74
2023/12/26 07:07:58;;;;;;;4.65;0.80;;;;;;;8.05;100.00;99969.63;6052363;28;20033;-74
2023/12/26 07:10:53;;;;;;;2.60;0.53;;;;;;;8.08;100.00;99982.53;6058794;28;20108;-74
2023/12/26 07:13:48;;;;;;;1.95;0.60;;;;;;;8.13;100.00;99976.81;6055664;28;20275;-73
2023/12/26 07:16:44;;;;;;;3.30;0.87;;;;;;;8.26;100.00;100009.81;6062638;28;20073;-74
2023/12/26 07:19:39;;;;;;;3.03;0.55;;;;;;;8.18;100.00;100004.44;6051793;28;20100;-74
2023/12/26 07:22:35;;;;;;;4.47;0.63;;;;;;;8.08;100.00;100011.59;6052112;28;20077;-74
2023/12/26 07:25:31;;;;;;;2.75;0.70;;;;;;;8.01;100.00;100015.81;6051797;28;21839;-75
2023/12/26 07:28:27;;;;;;;0.88;0.43;;;;;;;8.07;100.00;100024.94;6057010;28;20037;-74
2023/12/26 07:31:23;;;;;;;2.60;0.70;;;;;;;8.05;100.00;100033.00;6050440;28;20030;-74
2023/12/26 07:34:18;;;;;;;3.55;0.47;;;;;;;7.96;100.00;100038.34;6061564;28;20435;-74
2023/12/26 07:37:13;;;;;;;2.57;0.50;;;;;;;7.94;100.00;100056.09;6052218;28;20029;-74
2023/12/26 07:40:09;;;;;;;1.63;0.60;;;;;;;7.85;100.00;100064.91;6051960;28;20273;-74
2023/12/26 07:43:05;;;;;;;1.27;0.50;;;;;;;7.70;100.00;100077.72;6053019;28;20022;-74
2023/12/26 07:46:00;;;;;;;1.70;0.50;;;;;;;7.66;100.00;100085.09;6054034;28;20049;-74
2023/12/26 07:48:55;;;;;;;1.30;0.50;;;;;;;7.57;100.00;100083.34;6050385;28;20048;-74
2023/12/26 07:51:51;;;;;;;4.13;0.63;;;;;;;7.72;100.00;100096.88;6051193;28;20030;-74
2023/12/26 07:54:46;;;;;;;5.93;0.93;;;;;;;7.64;100.00;100091.50;6060428;28;20276;-75
2023/12/26 07:57:41;;;;;;;6.17;0.90;;;;;;;7.59;100.00;100118.31;6050839;28;20033;-74
2023/12/26 08:00:37;;;;;;;1.60;0.50;;;;;;;7.59;100.00;100136.78;6050950;28;20029;-74
2023/12/26 08:03:32;;;;;;;4.23;1.00;;;;;;;7.42;100.00;100136.69;6049544;28;20026;-74
2023/12/26 08:06:28;;;;;;;4.38;0.88;;;;;;;7.49;100.00;100137.78;6052985;28;20287;-72
2023/12/26 08:09:23;;;;;;;2.67;0.60;;;;;;;7.49;100.00;100145.69;6050825;28;20057;-72
2023/12/26 08:12:18;;;;;;;6.00;1.13;;;;;;;7.50;100.00;100152.63;6050437;28;20025;-73
2023/12/26 08:15:14;;;;;;;4.13;0.90;;;;;;;7.47;100.00;100169.56;6055486;28;20037;-74
2023/12/26 08:18:09;;;;;;;4.70;1.20;;;;;;;7.38;100.00;100169.56;6052199;28;20104;-73
2023/12/26 08:21:04;;;;;;;5.03;0.70;;;;;;;7.32;100.00;100160.41;6048650;28;20323;-74
2023/12/26 08:24:00;;;;;;;4.43;0.80;;;;;;;7.26;100.00;100168.84;6049975;28;20624;-74
2023/12/26 08:26:56;;;;;;;5.18;0.80;;;;;;;7.30;100.00;100190.53;6051221;28;20320;-74
2023/12/26 08:29:51;;;;;;;6.88;0.85;;;;;;;7.28;100.00;100188.03;6051501;28;20045;-74
2023/12/26 08:32:47;;;;;;;5.80;0.90;;;;;;;7.30;100.00;100182.63;6049588;28;20038;-74
2023/12/26 08:35:42;;;;;;;6.10;0.70;;;;;;;7.41;100.00;100200.94;6051823;28;20069;-73
2023/12/26 08:38:39;;;;;;;6.88;0.98;;;;;;;7.42;100.00;100200.78;6051408;28;20265;-73
2023/12/26 08:41:34;;;;;;;6.07;0.70;;;;;;;7.45;100.00;100202.31;6054347;28;20029;-74
2023/12/26 08:44:32;;;;;;;5.90;1.00;;;;;;;7.64;100.00;100212.88;6052820;28;20048;-73
2023/12/26 08:47:28;;;;;;;2.75;0.90;;;;;;;7.71;100.00;100212.19;6061399;28;20053;-74
2023/12/26 08:50:23;;;;;;;5.93;1.00;;;;;;;7.83;100.00;100212.84;6052779;28;20030;-73
2023/12/26 08:53:19;;;;;;;3.03;1.00;;;;;;;7.95;100.00;100213.53;6041258;28;20112;-73
2023/12/26 08:56:15;;;;;;;4.20;0.80;;;;;;;8.06;100.00;100224.78;6057110;28;20484;-73
2023/12/26 08:59:10;;;;;;;6.18;0.85;;;;;;;8.12;100.00;100216.31;6058561;28;20055;-72
2023/12/26 09:02:06;;;;;;;4.50;1.20;;;;;;;8.11;100.00;100219.91;6059352;28;20444;-72
2023/12/26 09:05:02;;;;;;;2.85;0.60;;;;;;;8.20;100.00;100213.78;6061324;28;20515;-72
2023/12/26 09:07:57;;;;;;;3.95;0.73;;;;;;;8.33;100.00;100234.63;6059160;28;20033;-73
2023/12/26 09:10:53;;;;;;;2.93;0.70;;;;;;;8.29;100.00;100220.84;6062445;28;20030;-73
2023/12/26 09:13:49;;;;;;;6.00;1.75;;;;;;;8.16;100.00;100225.59;6048826;28;20593;-73
2023/12/26 09:16:44;;;;;;;5.07;1.10;;;;;;;8.01;100.00;100220.91;6050139;28;20524;-73
2023/12/26 09:19:40;;;;;;;7.13;1.65;;;;;;;7.96;100.00;100245.09;6048933;28;20036;-73
2023/12/26 09:22:36;;;;;;;5.95;0.98;;;;;;;7.88;100.00;100229.09;6048946;28;20040;-73
2023/12/26 09:25:31;;;;;;;2.75;0.85;;;;;;;7.88;100.00;100258.13;6047650;28;20026;-73
2023/12/26 09:28:27;;;;;;;2.77;0.47;;;;;;;7.89;100.00;100267.72;6049079;28;21286;-73
2023/12/26 09:31:22;;;;;;;4.77;0.87;;;;;;;7.77;100.00;100250.38;6048428;28;20316;-73
2023/12/26 09:34:17;;;;;;;6.25;0.70;;;;;;;8.01;100.00;100271.06;6046714;28;20026;-73
2023/12/26 09:37:13;;;;;;;3.23;0.70;;;;;;;8.04;100.00;100279.53;6048941;28;20022;-73
2023/12/26 09:40:09;;;;;;;6.57;0.90;;;;;;;8.11;100.00;100285.91;6051225;28;20105;-73
2023/12/26 09:43:04;;;;;;;5.10;0.95;;;;;;;8.16;100.00;100286.31;6035180;28;20276;-73
2023/12/26 09:46:01;;;;;;;3.70;0.75;;;;;;;8.25;100.00;100282.00;6046586;28;20025;-73
2023/12/26 09:48:56;;;;;;;6.07;0.85;;;;;;;8.32;100.00;100273.41;6049478;28;20384;-73
2023/12/26 09:51:52;;;;;;;2.13;0.83;;;;;;;8.43;100.00;100287.41;6059263;28;20026;-74
2023/12/26 09:54:49;;;;;;;4.00;0.82;;;;;;;8.46;100.00;100295.06;6060062;28;20276;-74
2023/12/26 09:57:48;;;;;;;1.55;0.80;;;;;;;8.37;100.00;100302.03;6051306;28;20101;-73
2023/12/26 10:00:50;;;;;;;2.60;0.85;;;;;;;8.37;100.00;100302.03;6013961;28;20038;-74
2023/12/26 10:03:47;;;;;;;3.97;0.82;;;;;;;8.39;100.00;100302.75;6027724;28;20044;-73
2023/12/26 10:06:43;;;;;;;6.20;0.80;;;;;;;8.49;100.00;100311.47;6011524;28;20037;-73
2023/12/26 10:09:38;;;;;;;4.82;0.80;;;;;;;8.51;100.00;100316.59;6047214;28;20040;-74
2023/12/26 10:12:34;;;;;;;4.85;0.70;;;;;;;8.45;100.00;100303.97;6047122;28;20030;-73
2023/12/26 10:15:29;;;;;;;4.88;0.98;;;;;;;8.43;100.00;100316.47;6048002;28;20474;-74
2023/12/26 10:18:27;;;;;;;2.30;0.70;;;;;;;8.46;100.00;100310.91;6050509;28;20400;-74
2023/12/26 10:21:23;;;;;;;5.10;0.77;;;;;;;8.51;100.00;100329.81;6058619;28;20026;-74
2023/12/26 10:24:18;;;;;;;5.07;1.13;;;;;;;8.49;100.00;100339.69;6054175;28;20034;-73
2023/12/26 10:27:14;;;;;;;4.75;0.98;;;;;;;8.47;100.00;100336.38;6048252;28;20030;-74
2023/12/26 10:30:16;;;;;;;4.80;2.35;;;;;;;8.55;100.00;100355.81;6048389;28;20057;-74
2023/12/26 10:33:23;;;;;;;3.15;1.05;;;;;;;8.59;100.00;100351.91;6051257;28;20057;-74
2023/12/26 10:36:19;;;;;;;5.72;0.90;;;;;;;8.63;100.00;100355.09;6055901;28;20623;-74
2023/12/26 10:39:15;;;;;;;7.80;1.77;;;;;;;8.60;100.00;100365.97;6051568;28;20037;-74
2023/12/26 10:42:13;;;;;;;4.45;0.90;;;;;;;8.71;100.00;100365.81;6050223;28;20033;-73
2023/12/26 10:45:10;;;;;;;1.38;0.93;;;;;;;8.75;100.00;100354.78;6032826;28;20363;-74
2023/12/26 10:48:19;;;;;;;2.58;1.30;;;;;;;8.69;100.00;100349.25;6042175;28;20051;-74
2023/12/26 10:51:24;;;;;;;4.68;0.85;;;;;;;8.78;100.00;100358.97;6056478;28;20022;-73
2023/12/26 10:54:25;;;;;;;3.95;0.80;;;;;;;8.81;100.00;100358.69;6038783;28;20038;-74
2023/12/26 10:57:21;;;;;;;4.65;0.75;;;;;;;8.92;100.00;100374.38;6041860;28;20369;-74
2023/12/26 13:51:27;;;;;;;7.22;1.23;;;;;;;8.49;100.00;100532.59;6049205;28;20393;-73
2023/12/26 13:54:22;;;;;;;3.40;0.98;;;;;;;8.40;100.00;100521.03;6046821;28;20026;-74
2023/12/26 13:57:17;;;;;;;3.57;0.77;;;;;;;8.44;100.00;100537.47;6048846;28;20400;-73
2023/12/26 14:00:13;;;;;;;4.40;1.10;;;;;;;8.18;100.00;100548.47;6049201;28;20030;-73
2023/12/26 14:03:08;;;;;;;5.00;0.70;;;;;;;8.01;100.00;100558.88;6051312;28;20034;-73
2023/12/26 14:06:04;;;;;;;5.25;1.08;;;;;;;7.79;100.00;100566.00;6048590;28;20525;-73
2023/12/26 14:08:59;;;;;;;8.37;1.37;;;;;;;7.61;100.00;100564.09;6048930;28;20037;-73
2023/12/26 14:11:54;;;;;;;6.73;1.20;;;;;;;7.50;100.00;100565.00;6048048;28;20289;-74
2023/12/26 14:14:53;;;;;;;5.78;1.30;;;;;;;7.70;100.00;100566.78;6057780;28;20323;-73
2023/12/26 14:17:51;;;;;;;4.72;1.05;;;;;;;7.87;100.00;100556.56;6050183;28;20044;-74
2023/12/26 14:20:49;;;;;;;8.60;1.15;;;;;;;8.02;100.00;100556.06;6043389;28;20092;-72
2023/12/26 14:23:45;;;;;;;10.10;1.23;;;;;;;8.06;100.00;100551.38;6033389;28;20088;-74
2023/12/26 14:26:40;;;;;;;6.30;1.23;;;;;;;8.10;100.00;100566.00;6060133;28;20509;-73
2023/12/26 14:29:36;;;;;;;7.25;1.00;;;;;;;8.07;100.00;100564.44;6059839;28;20116;-72
2023/12/26 14:32:32;;;;;;;4.78;1.10;;;;;;;8.11;100.00;100563.22;6058929;28;20770;-72
2023/12/26 14:35:27;;;;;;;7.03;1.20;;;;;;;8.16;100.00;100592.69;6055385;28;20028;-72
2023/12/26 14:38:22;;;;;;;7.00;1.40;;;;;;;8.09;100.00;100588.91;6042550;28;20491;-72
2023/12/26 14:41:18;;;;;;;8.17;1.40;;;;;;;8.03;100.00;100585.97;6062736;28;20421;-73
2023/12/26 14:44:13;;;;;;;7.67;1.13;;;;;;;8.10;100.00;100595.84;6059388;28;20154;-72
2023/12/26 14:47:09;;;;;;;3.53;1.27;;;;;;;8.01;100.00;100586.09;6065020;28;20037;-72
2023/12/26 14:50:04;;;;;;;8.53;2.20;;;;;;;7.92;100.00;100596.63;6055820;28;20037;-73
2023/12/26 14:53:05;;;;;;;4.53;0.80;;;;;;;7.85;100.00;100614.78;6058714;28;20040;-73
2023/12/26 14:56:02;;;;;;;6.47;1.30;;;;;;;7.85;100.00;100616.59;6054651;28;20041;-72
2023/12/26 14:58:58;;;;;;;3.65;1.10;;;;;;;7.65;100.00;100605.09;6052335;28;20022;-72
2023/12/26 15:02:03;;;;;;;8.60;2.33;;;;;;;7.71;100.00;100615.13;6036549;28;20489;-72
2023/12/26 15:04:59;;;;;;;7.97;1.10;;;;;;;7.74;100.00;100622.78;6053589;28;20400;-72
2023/12/26 15:07:54;;;;;;;5.35;1.10;;;;;;;7.80;100.00;100635.44;6059458;28;20085;-72
2023/12/26 15:10:50;;;;;;;5.88;1.50;;;;;;;7.83;100.00;100634.38;6051151;28;20030;-73
2023/12/26 15:13:50;;;;;;;;;;;;;;;7.91;100.00;100642.47;6050167;28;20046;-73
2023/12/26 15:16:47;;;;;;;5.30;1.83;;;;;;;7.93;100.00;100654.59;6049511;28;19975;-74
2023/12/26 15:19:42;;;;;;;7.55;2.20;;;;;;;8.01;100.00;100670.59;6049877;28;20121;-73
2023/12/26 15:22:38;;;;;;;7.72;1.92;;;;;;;7.95;100.00;100670.28;6049548;28;20491;-73
2023/12/26 15:25:33;;;;;;;7.00;1.55;;;;;;;8.03;100.00;100671.31;6049479;28;20058;-73
2023/12/26 15:28:28;;;;;;;6.77;1.50;;;;;;;8.06;100.00;100678.13;6051792;28;20077;-73
2023/12/26 15:31:24;;;;;;;10.67;1.70;;;;;;;8.05;100.00;100687.00;6051403;28;20809;-74
2023/12/26 15:34:20;;;;;;;11.63;1.53;;;;;;;8.03;100.00;100681.88;6050147;28;20380;-72
2023/12/26 15:37:16;;;;;;;8.20;2.00;;;;;;;8.02;100.00;100698.66;6051521;28;20277;-73
2023/12/26 15:40:11;;;;;;;7.43;1.20;;;;;;;7.93;100.00;100702.09;6051437;28;20041;-73
2023/12/26 15:43:07;;;;;;;3.67;1.33;;;;;;;7.83;100.00;100695.09;6053490;28;20030;-73
2023/12/26 15:46:02;;;;;;;6.83;1.53;;;;;;;7.65;100.00;100710.66;6050943;28;20021;-73
2023/12/26 15:48:57;;;;;;;7.75;1.30;;;;;;;7.73;100.00;100713.47;6051822;28;20399;-73
2023/12/26 15:51:53;;;;;;;5.97;1.40;;;;;;;7.71;100.00;100689.03;6051194;28;20034;-73
2023/12/26 15:54:48;;;;;;;2.63;0.80;;;;;;;7.68;100.00;100718.31;6050429;28;20038;-73
2023/12/26 15:57:43;;;;;;;7.90;1.00;;;;;;;7.67;100.00;100714.81;6051476;28;20030;-73
2023/12/26 16:00:40;;;;;;;5.40;0.80;;;;;;;7.62;100.00;100718.81;6050889;28;20033;-73
2023/12/26 16:03:35;;;;;;;5.70;0.80;;;;;;;7.62;100.00;100700.34;6044401;28;20026;-73
2023/12/26 16:06:32;;;;;;;3.17;0.90;;;;;;;7.58;100.00;100715.59;6051210;28;20104;-74
2023/12/26 16:09:28;;;;;;;2.35;0.93;;;;;;;7.61;100.00;100730.34;6051406;28;20108;-73
2023/12/26 16:12:23;;;;;;;4.35;0.80;;;;;;;7.51;100.00;100734.69;6050534;28;20029;-73
2023/12/26 16:15:20;;;;;;;4.93;1.07;;;;;;;7.37;100.00;100727.91;6049874;28;20018;-74
2023/12/26 16:18:16;;;;;;;5.40;1.10;;;;;;;7.29;100.00;100721.56;6053008;28;20269;-74
2023/12/26 16:21:11;;;;;;;4.75;0.90;;;;;;;7.39;100.00;100740.97;6050534;28;20109;-74
2023/12/26 16:24:10;;;;;;;2.35;0.85;;;;;;;7.40;100.00;100742.63;6049977;28;20017;-73
2023/12/26 16:27:05;;;;;;;4.35;0.80;;;;;;;7.32;100.00;100747.69;6050510;28;20038;-73
2023/12/26 16:30:00;;;;;;;4.17;1.10;;;;;;;7.30;100.00;100739.09;6050158;28;20034;-72
2023/12/26 16:32:59;;;;;;;3.27;1.30;;;;;;;7.28;100.00;100759.47;6050389;28;20257;-72